createdAt,value
2023-02-08T00:43:41.117Z,74.88
2023-02-08T00:50:13.094Z,74.95
2023-02-08T00:53:14.958Z,75.01
2023-02-08T01:00:17.249Z,74.76
2023-02-08T01:03:18.391Z,74.58
2023-02-08T01:06:20.464Z,74.64
2023-02-08T01:09:09.232Z,74.74
2023-02-08T01:11:51.287Z,74.90
2023-02-08T01:14:19.649Z,74.76
2023-02-08T01:16:47.321Z,74.85
2023-02-08T01:19:17.882Z,74.83
2023-02-08T01:21:53.439Z,75.18
2023-02-08T01:24:26.482Z,74.95
2023-02-08T01:26:56.405Z,75.08
2023-02-08T01:29:26.074Z,74.98
2023-02-08T01:31:53.636Z,75.17
2023-02-08T01:34:21.442Z,74.99
2023-02-08T01:36:48.819Z,75.11
2023-02-08T01:39:16.076Z,75.09
2023-02-08T01:41:46.818Z,75.07
2023-02-08T01:44:15.264Z,75.23
2023-02-08T01:46:44.637Z,75.04
2023-02-08T01:49:29.704Z,74.90
2023-02-08T01:52:10.831Z,74.95
2023-02-08T01:54:45.186Z,74.95
2023-02-08T01:57:12.443Z,75.12
2023-02-08T01:59:49.720Z,74.93
2023-02-08T02:02:18.222Z,75.01
2023-02-08T02:04:48.692Z,74.83
2023-02-08T02:07:16.843Z,74.82
2023-02-08T02:10:04.406Z,74.96
2023-02-08T02:12:32.820Z,74.92
2023-02-08T02:15:00.421Z,75.00
2023-02-08T02:17:28.252Z,74.71
2023-02-08T02:20:04.578Z,74.90
2023-02-08T02:22:31.483Z,74.89
2023-02-08T02:25:32.764Z,74.98
2023-02-08T02:28:14.933Z,75.10
2023-02-08T02:31:15.571Z,75.21
2023-02-08T02:33:51.597Z,75.05
2023-02-08T02:36:33.958Z,75.15
2023-02-08T02:39:26.765Z,75.08
2023-02-08T02:42:22.058Z,75.10
2023-02-08T02:44:59.127Z,75.24
2023-02-08T02:47:53.576Z,74.93
2023-02-08T02:50:30.392Z,75.04
2023-02-08T02:53:03.594Z,75.12
2023-02-08T02:55:34.129Z,75.28
2023-02-08T02:58:02.844Z,75.17
2023-02-08T03:00:31.494Z,75.22
2023-02-08T03:02:58.917Z,75.21
2023-02-08T03:05:26.705Z,75.25
2023-02-08T03:08:17.319Z,75.03
2023-02-08T03:10:54.911Z,74.82
2023-02-08T03:13:29.103Z,75.20
2023-02-08T03:16:05.242Z,74.99
2023-02-08T03:19:00.493Z,74.99
2023-02-08T03:21:50.684Z,74.91
2023-02-08T03:24:38.720Z,75.17
2023-02-08T03:27:05.718Z,75.20
2023-02-08T03:29:48.119Z,74.92
2023-02-08T03:32:18.650Z,75.24
2023-02-08T03:34:54.874Z,75.15
2023-02-08T03:37:25.472Z,75.13
2023-02-08T03:40:01.433Z,75.05
2023-02-08T03:42:32.245Z,74.99
2023-02-08T03:45:02.538Z,75.17
2023-02-08T03:47:34.338Z,75.06
2023-02-08T03:50:07.755Z,75.11
2023-02-08T03:52:44.731Z,74.88
2023-02-08T03:55:22.904Z,74.91
2023-02-08T03:57:53.438Z,75.05
2023-02-08T04:00:22.157Z,75.30
2023-02-08T04:03:04.573Z,75.20
2023-02-08T04:05:31.894Z,75.18
2023-02-08T04:08:02.596Z,75.22
2023-02-08T04:10:32.730Z,75.30
2023-02-08T04:13:01.806Z,75.02
2023-02-08T04:15:28.979Z,75.01
2023-02-08T04:17:56.082Z,74.92
2023-02-08T04:20:23.272Z,74.79
2023-02-08T04:22:50.374Z,74.61
2023-02-08T04:25:17.474Z,74.89
2023-02-08T04:27:44.405Z,74.69
2023-02-08T04:30:15.707Z,74.69
2023-02-08T04:32:42.475Z,74.89
2023-02-08T04:35:12.559Z,74.86
2023-02-08T04:37:45.612Z,74.92
2023-02-08T04:40:12.591Z,74.89
2023-02-08T04:42:39.566Z,75.03
2023-02-08T04:45:10.428Z,74.94
2023-02-08T04:47:42.573Z,75.16
2023-02-08T04:50:09.860Z,75.11
2023-02-08T04:52:36.942Z,75.20
2023-02-08T04:55:03.742Z,75.38
2023-02-08T04:57:30.408Z,75.69
2023-02-08T04:59:59.446Z,75.88
2023-02-08T05:02:32.654Z,75.93
2023-02-08T05:04:59.644Z,76.10
2023-02-08T05:07:26.527Z,75.84
2023-02-08T05:09:53.463Z,76.12
2023-02-08T05:15:58.713Z,76.01
2023-02-08T05:18:25.553Z,76.16
2023-02-08T05:21:00.358Z,76.20
2023-02-08T05:23:27.981Z,75.96
2023-02-08T05:25:54.729Z,75.86
2023-02-08T05:28:22.525Z,76.05
2023-02-08T05:30:50.049Z,75.90
2023-02-08T05:33:17.377Z,75.79
2023-02-08T05:35:47.052Z,75.97
2023-02-08T05:38:13.732Z,75.80
2023-02-08T05:40:40.852Z,75.79
2023-02-08T05:43:07.647Z,75.93
2023-02-08T05:45:34.377Z,76.19
2023-02-08T05:48:01.196Z,75.52
2023-02-08T05:50:28.083Z,75.84
2023-02-08T05:52:54.877Z,75.96
2023-02-08T05:55:21.672Z,75.65
2023-02-08T05:57:48.825Z,75.64
2023-02-08T06:00:16.026Z,75.68
2023-02-08T06:02:46.093Z,75.59
2023-02-08T06:05:12.964Z,75.57
2023-02-08T06:07:39.723Z,75.51
2023-02-08T06:10:07.028Z,75.68
2023-02-08T06:12:33.796Z,75.68
2023-02-08T06:15:00.578Z,75.75
2023-02-08T06:17:27.790Z,75.50
2023-02-08T06:19:54.569Z,75.56
2023-02-08T06:22:26.200Z,75.65
2023-02-08T06:24:52.926Z,75.53
2023-02-08T06:27:19.676Z,75.77
2023-02-08T06:29:46.425Z,75.72
2023-02-08T06:32:13.543Z,75.72
2023-02-08T06:34:40.734Z,75.57
2023-02-08T06:37:07.481Z,75.58
2023-02-08T06:39:34.274Z,75.70
2023-02-08T06:42:01.232Z,75.53
2023-02-08T06:44:28.157Z,75.89
2023-02-08T06:46:55.037Z,75.75
2023-02-08T06:49:21.802Z,75.78
2023-02-08T06:51:49.584Z,75.53
2023-02-08T06:54:16.507Z,75.57
2023-02-08T06:56:43.798Z,75.59
2023-02-08T06:59:10.738Z,75.81
2023-02-08T07:01:37.604Z,75.69
2023-02-08T07:04:04.752Z,75.76
2023-02-08T07:06:31.681Z,75.64
2023-02-08T07:08:58.684Z,75.50
2023-02-08T07:11:27.135Z,75.62
2023-02-08T07:13:54.770Z,75.88
2023-02-08T07:16:21.750Z,75.87
2023-02-08T07:18:48.511Z,75.93
2023-02-08T07:21:15.607Z,75.85
2023-02-08T07:23:42.361Z,75.83
2023-02-08T07:26:12.225Z,75.94
2023-02-08T07:28:39.485Z,75.91
2023-02-08T07:31:11.226Z,75.79
2023-02-08T07:33:38.370Z,75.91
2023-02-08T07:36:09.205Z,75.89
2023-02-08T07:38:37.240Z,75.79
2023-02-08T07:41:09.169Z,75.92
2023-02-08T07:43:37.648Z,75.93
2023-02-08T07:46:08.205Z,75.64
2023-02-08T07:48:35.369Z,75.72
2023-02-08T07:51:02.770Z,75.45
2023-02-08T07:53:29.928Z,75.58
2023-02-08T07:55:56.755Z,75.58
2023-02-08T07:58:23.874Z,75.35
2023-02-08T08:00:50.697Z,75.44
2023-02-08T08:03:17.462Z,75.43
2023-02-08T08:05:44.828Z,75.43
2023-02-08T08:08:14.803Z,75.51
2023-02-08T08:10:41.998Z,75.41
2023-02-08T08:13:09.557Z,75.42
2023-02-08T08:15:36.593Z,75.34
2023-02-08T08:18:17.376Z,75.24
2023-02-08T08:20:46.698Z,75.48
2023-02-08T08:23:13.855Z,75.57
2023-02-08T08:25:40.696Z,75.40
2023-02-08T08:28:08.002Z,75.40
2023-02-08T08:30:35.070Z,75.05
2023-02-08T08:33:01.993Z,75.12
2023-02-08T08:35:28.865Z,75.10
2023-02-08T08:37:55.737Z,75.12
2023-02-08T08:40:24.320Z,74.96
2023-02-08T08:42:52.146Z,75.16
2023-02-08T08:45:19.320Z,75.02
2023-02-08T08:47:46.229Z,75.17
2023-02-08T08:50:13.297Z,75.05
2023-02-08T08:52:40.623Z,75.05
2023-02-08T08:55:08.945Z,74.95
2023-02-08T08:57:43.151Z,74.85
2023-02-08T09:00:13.582Z,75.03
2023-02-08T09:02:40.723Z,74.81
2023-02-08T09:05:11.137Z,74.71
2023-02-08T09:07:40.481Z,74.64
2023-02-08T09:10:07.611Z,74.65
2023-02-08T09:12:37.597Z,74.63
2023-02-08T09:15:05.441Z,74.70
2023-02-08T09:17:32.233Z,74.77
2023-02-08T09:19:58.931Z,74.82
2023-02-08T09:22:25.649Z,74.47
2023-02-08T09:24:53.396Z,74.67
2023-02-08T09:27:20.102Z,74.67
2023-02-08T09:29:46.849Z,74.76
2023-02-08T09:32:13.723Z,74.83
2023-02-08T09:34:40.513Z,74.97
2023-02-08T09:37:07.554Z,74.77
2023-02-08T09:39:35.080Z,74.82
2023-02-08T09:42:22.183Z,74.75
2023-02-08T09:45:20.937Z,74.89
2023-02-08T09:47:57.217Z,74.92
2023-02-08T09:50:26.563Z,74.76
2023-02-08T09:53:14.282Z,74.47
2023-02-08T09:55:47.757Z,74.41
2023-02-08T09:58:22.460Z,74.62
2023-02-08T10:00:50.950Z,74.26
2023-02-08T10:03:41.610Z,74.11
2023-02-08T10:06:10.509Z,74.24
2023-02-08T10:08:37.673Z,74.13
2023-02-08T10:11:17.666Z,73.98
2023-02-08T10:14:19.227Z,73.94
2023-02-08T10:17:19.772Z,73.77
2023-02-08T10:19:56.713Z,73.41
2023-02-08T10:22:48.882Z,73.45
2023-02-08T10:25:37.120Z,73.49
2023-02-08T10:28:23.860Z,73.34
2023-02-08T10:31:16.667Z,73.20
2023-02-08T10:34:34.854Z,73.06
2023-02-08T10:37:10.035Z,73.08
2023-02-08T10:39:39.657Z,72.92
2023-02-08T10:42:14.324Z,72.68
2023-02-08T10:44:49.868Z,72.54
2023-02-08T10:47:24.585Z,72.23
2023-02-08T10:49:58.295Z,72.19
2023-02-08T10:52:25.334Z,71.85
2023-02-08T10:54:52.918Z,71.59
2023-02-08T10:57:26.612Z,71.42
2023-02-08T11:00:00.274Z,71.42
2023-02-08T11:02:34.304Z,71.15
2023-02-08T11:05:16.153Z,71.06
2023-02-08T11:07:42.873Z,70.80
2023-02-08T11:10:18.968Z,70.60
2023-02-08T11:12:55.323Z,70.49
2023-02-08T11:15:25.905Z,70.39
2023-02-08T11:17:55.860Z,69.92
2023-02-08T11:20:27.128Z,69.47
2023-02-08T11:22:54.552Z,69.59
2023-02-08T11:25:36.326Z,69.24
2023-02-08T11:28:03.776Z,69.11
2023-02-08T11:30:30.776Z,68.42
2023-02-08T11:33:19.407Z,68.63
2023-02-08T11:35:55.702Z,68.30
2023-02-08T11:38:27.607Z,68.29
2023-02-08T11:40:57.474Z,68.00
2023-02-08T11:43:30.376Z,67.74
2023-02-08T11:45:58.314Z,67.53
2023-02-08T11:48:34.476Z,67.55
2023-02-08T11:51:04.057Z,67.05
2023-02-08T11:53:41.251Z,66.95
2023-02-08T11:56:21.574Z,66.54
2023-02-08T11:59:05.422Z,66.36
2023-02-08T12:01:36.855Z,66.11
2023-02-08T12:04:06.984Z,65.96
2023-02-08T12:06:59.234Z,65.38
2023-02-08T12:10:05.414Z,65.16
2023-02-08T12:12:43.662Z,64.69
2023-02-08T12:15:25.494Z,64.17
2023-02-08T12:18:21.002Z,63.84
2023-02-08T12:21:13.178Z,63.77
2023-02-08T12:23:56.025Z,63.51
2023-02-08T12:26:45.134Z,63.31
2023-02-08T12:29:48.634Z,62.85
2023-02-08T12:32:38.661Z,62.79
2023-02-08T12:35:39.928Z,62.36
2023-02-08T12:38:45.742Z,62.09
2023-02-08T12:41:26.757Z,62.00
2023-02-08T12:44:22.641Z,61.90
2023-02-08T12:47:04.624Z,61.20
2023-02-08T12:49:48.197Z,61.27
2023-02-08T12:52:39.461Z,60.84
2023-02-08T12:55:26.002Z,60.96
2023-02-08T12:58:35.344Z,60.68
2023-02-08T13:01:08.672Z,60.15
2023-02-08T13:03:35.685Z,59.70
2023-02-08T13:06:14.581Z,59.47
2023-02-08T13:09:17.612Z,59.16
2023-02-08T13:13:09.880Z,59.16
2023-02-08T13:16:06.460Z,59.05
2023-02-08T13:18:50.822Z,58.83
2023-02-08T13:21:23.206Z,58.70
2023-02-08T13:23:56.162Z,58.64
2023-02-08T13:26:33.707Z,58.43
2023-02-08T13:29:07.887Z,58.75
2023-02-08T13:31:54.838Z,58.17
2023-02-08T13:34:45.515Z,58.16
2023-02-08T13:37:31.213Z,58.16
2023-02-08T13:40:18.924Z,57.73
2023-02-08T13:46:25.369Z,57.42
2023-02-08T13:49:03.795Z,57.18
2023-02-08T13:51:41.597Z,57.16
2023-02-08T13:54:24.844Z,57.16
2023-02-08T13:57:03.780Z,57.06
2023-02-08T13:59:52.149Z,56.78
2023-02-08T14:02:40.466Z,56.65
2023-02-08T14:05:51.540Z,56.51
2023-02-08T14:08:27.771Z,56.02
2023-02-08T14:11:17.180Z,56.03
2023-02-08T14:13:48.795Z,56.08
2023-02-08T14:17:21.838Z,55.87
2023-02-08T14:19:58.545Z,55.91
2023-02-08T14:22:34.529Z,55.88
2023-02-08T14:25:06.347Z,55.66
2023-02-08T14:27:44.813Z,55.38
2023-02-08T14:30:29.599Z,55.64
2023-02-08T14:33:04.294Z,55.57
2023-02-08T14:35:34.236Z,55.87
2023-02-08T14:38:20.522Z,55.74
2023-02-08T14:41:22.015Z,55.75
2023-02-08T14:43:52.066Z,55.82
2023-02-08T14:46:44.376Z,55.96
2023-02-08T14:49:18.432Z,56.02
2023-02-08T14:51:58.692Z,55.90
2023-02-08T14:54:33.111Z,55.21
2023-02-08T14:57:10.653Z,55.40
2023-02-08T14:59:44.319Z,55.57
2023-02-08T15:02:33.246Z,55.26
2023-02-08T15:06:25.353Z,55.77
2023-02-08T15:09:03.912Z,55.72
2023-02-08T15:11:45.209Z,55.82
2023-02-08T15:15:09.355Z,56.01
2023-02-08T15:18:38.496Z,56.24
2023-02-08T15:21:07.664Z,56.46
2023-02-08T15:23:34.732Z,56.59
2023-02-08T15:26:24.256Z,56.58
2023-02-08T15:28:54.196Z,57.29
2023-02-08T15:31:28.275Z,57.64
2023-02-08T15:33:55.239Z,57.84
2023-02-08T15:36:29.734Z,58.50
2023-02-08T15:39:03.589Z,58.53
2023-02-08T15:41:34.464Z,59.12
2023-02-08T15:44:22.134Z,59.38
2023-02-08T15:49:28.221Z,60.15
2023-02-08T15:51:57.305Z,60.44
2023-02-08T15:54:24.629Z,60.59
2023-02-08T15:57:21.971Z,60.81
2023-02-08T15:59:49.160Z,61.31
2023-02-08T16:02:28.305Z,61.69
2023-02-08T16:08:24.491Z,61.99
2023-02-08T16:11:00.613Z,62.14
2023-02-08T16:13:31.408Z,62.44
2023-02-08T16:16:17.610Z,62.38
2023-02-08T16:18:47.300Z,62.74
2023-02-08T16:21:46.904Z,63.00
2023-02-08T16:24:13.772Z,63.10
2023-02-08T16:26:46.757Z,63.32
2023-02-08T16:29:18.401Z,63.42
2023-02-08T16:31:47.751Z,63.40
2023-02-08T16:34:17.521Z,63.92
2023-02-08T16:36:50.052Z,63.85
2023-02-08T16:39:23.168Z,64.19
2023-02-08T16:42:14.574Z,64.28
2023-02-08T16:44:59.571Z,64.27
2023-02-08T16:47:49.735Z,64.44
2023-02-08T16:50:36.742Z,64.61
2023-02-08T17:07:58.514Z,65.15
2023-02-08T17:10:29.102Z,65.27
2023-02-08T17:13:17.446Z,65.50
2023-02-08T17:15:50.902Z,65.95
2023-02-08T17:18:18.500Z,65.83
2023-02-08T17:20:57.912Z,65.78
2023-02-08T17:23:33.197Z,65.96
2023-02-08T17:26:00.560Z,66.01
2023-02-08T17:28:55.198Z,66.14
2023-02-08T17:31:22.965Z,66.18
2023-02-08T17:34:05.679Z,66.29
2023-02-08T17:36:47.668Z,66.18
2023-02-08T17:43:19.611Z,66.54
2023-02-08T17:46:13.623Z,66.45
2023-02-08T17:52:02.595Z,66.39
2023-02-08T17:54:29.359Z,66.76
2023-02-08T17:56:58.732Z,66.59
2023-02-08T17:59:25.486Z,66.57
2023-02-08T18:01:52.288Z,66.66
2023-02-08T18:04:19.154Z,66.97
2023-02-08T18:06:45.916Z,66.77
2023-02-08T18:09:12.639Z,66.90
2023-02-08T18:11:39.336Z,66.81
2023-02-08T18:14:06.180Z,67.03
2023-02-08T18:16:32.949Z,67.05
2023-02-08T18:19:01.305Z,66.83
2023-02-08T18:21:32.960Z,66.96
2023-02-08T18:24:04.791Z,66.99
2023-02-08T18:26:35.978Z,67.00
2023-02-08T18:29:03.041Z,67.28
2023-02-08T18:31:29.993Z,67.27
2023-02-08T18:33:57.363Z,67.59
2023-02-08T18:36:24.543Z,67.59
2023-02-08T18:38:53.410Z,67.35
2023-02-08T18:41:23.992Z,67.52
2023-02-08T18:43:51.583Z,67.51
2023-02-08T18:46:20.385Z,67.60
2023-02-08T18:48:47.779Z,67.40
2023-02-08T18:51:33.614Z,67.74
2023-02-08T18:54:00.316Z,67.75
2023-02-08T18:56:28.122Z,67.75
2023-02-08T18:58:55.767Z,67.76
2023-02-08T19:01:23.899Z,67.84
2023-02-08T19:03:52.192Z,67.96
2023-02-08T19:06:22.734Z,67.80
2023-02-08T19:08:51.773Z,67.87
2023-02-08T19:11:26.695Z,67.93
2023-02-08T19:14:00.048Z,68.17
2023-02-08T19:16:27.899Z,68.00
2023-02-08T19:18:59.713Z,68.38
2023-02-08T19:21:26.909Z,68.04
2023-02-08T19:23:54.345Z,68.43
2023-02-08T19:26:23.649Z,68.16
2023-02-08T19:28:51.578Z,68.20
2023-02-08T19:31:20.698Z,68.19
2023-02-08T19:33:49.367Z,68.34
2023-02-08T19:36:17.575Z,68.42
2023-02-08T19:38:44.947Z,68.37
2023-02-08T19:41:17.856Z,68.35
2023-02-08T19:43:45.255Z,68.41
2023-02-08T19:46:17.148Z,68.50
2023-02-08T19:48:44.024Z,68.88
2023-02-08T20:51:37.959Z,69.04
2023-02-08T21:23:17.500Z,68.75
2023-02-08T21:26:28.094Z,68.67
2023-02-08T21:29:45.032Z,68.77
2023-02-08T21:32:56.142Z,69.05
2023-02-08T21:36:20.056Z,69.08
2023-02-08T21:40:29.832Z,68.99
2023-02-08T21:43:22.186Z,69.05
2023-02-08T21:45:59.911Z,69.13
2023-02-08T21:49:05.214Z,69.16
2023-02-08T21:52:36.610Z,69.26
2023-02-08T21:55:20.717Z,68.99
2023-02-08T21:57:57.410Z,69.01
2023-02-08T22:01:34.824Z,69.20
2023-02-08T22:04:23.036Z,68.86
2023-02-08T22:07:31.662Z,68.92
2023-02-08T22:10:24.004Z,68.69
2023-02-08T22:12:56.601Z,68.75
2023-02-08T22:15:50.897Z,68.86
2023-02-08T22:18:30.364Z,69.04
2023-02-08T22:21:03.513Z,68.94
2023-02-08T22:23:36.895Z,69.02
2023-02-08T22:26:12.732Z,68.86
2023-02-08T22:28:42.592Z,68.87
2023-02-08T22:31:35.628Z,69.01
2023-02-08T22:34:45.962Z,69.04
2023-02-08T22:37:45.526Z,69.16
2023-02-08T22:41:26.002Z,68.95
2023-02-08T22:44:18.865Z,68.97
2023-02-08T22:47:03.146Z,69.21
2023-02-08T22:49:35.022Z,69.09
2023-02-08T22:52:16.689Z,69.33
2023-02-08T22:55:08.147Z,68.98
2023-02-08T22:57:52.456Z,69.08
2023-02-08T23:04:00.201Z,69.22
2023-02-08T23:07:16.761Z,69.43
2023-02-08T23:18:01.382Z,69.28
2023-02-08T23:20:44.851Z,69.29
2023-02-08T23:23:25.012Z,69.42
2023-02-08T23:26:04.545Z,69.43
2023-02-08T23:28:46.311Z,69.60
2023-02-08T23:31:14.806Z,69.76
2023-02-08T23:33:50.623Z,69.69
2023-02-08T23:36:24.395Z,69.64
2023-02-08T23:38:56.759Z,69.70
2023-02-08T23:41:42.454Z,69.56
2023-02-08T23:44:15.391Z,69.51
2023-02-08T23:49:40.396Z,69.70
2023-02-08T23:52:12.143Z,69.83
2023-02-08T23:54:41.945Z,69.68
2023-02-08T23:57:11.877Z,69.78
2023-02-08T23:59:41.677Z,69.91
